Time;durP1;ratioP1;P1;durP2;ratioP2;P2;SDS_P1;SDS_P2;PMS_P1;PMS_P2;Temp;Humidity;BMP_temperature;BMP_pressure;BME280_temperature;BME280_humidity;BME280_pressure;Samples;Min_cycle;Max_cycle;Signal;HPM_P1;HPM_P2
2023/10/07 00:01:40;;;;;;;8.95;4.13;;;;;;;13.30;100.00;102000.06;5009132;28;20026;-66
2023/10/07 00:04:05;;;;;;;6.10;3.72;;;;;;;13.29;100.00;102012.19;5008971;28;20026;-65
2023/10/07 00:06:31;;;;;;;7.65;3.75;;;;;;;13.26;100.00;102006.00;5009439;28;20030;-65
2023/10/07 00:08:59;;;;;;;8.63;4.05;;;;;;;13.26;100.00;102004.25;5012110;28;20053;-65
2023/10/07 00:11:27;;;;;;;7.82;3.90;;;;;;;13.27;100.00;102003.47;5018067;28;20030;-65
2023/10/07 00:13:54;;;;;;;8.40;4.38;;;;;;;13.22;100.00;101989.38;5021603;28;20017;-65
2023/10/07 00:16:21;;;;;;;7.78;3.90;;;;;;;13.23;100.00;101987.63;5020273;28;20501;-66
2023/10/07 00:18:46;;;;;;;10.52;3.88;;;;;;;13.24;100.00;101985.09;5028142;28;20017;-65
2023/10/07 00:21:18;;;;;;;9.50;4.40;;;;;;;13.20;100.00;101971.06;5027098;28;20402;-65
2023/10/07 00:23:43;;;;;;;9.90;4.95;;;;;;;13.20;100.00;101978.00;5013319;28;20044;-65
2023/10/07 00:26:09;;;;;;;7.45;4.20;;;;;;;13.18;100.00;101977.97;5028303;28;20029;-65
2023/10/07 00:28:36;;;;;;;8.85;4.20;;;;;;;13.14;100.00;101965.63;5023267;28;20233;-65
2023/10/07 00:31:13;;;;;;;8.45;4.40;;;;;;;13.14;100.00;101964.75;5008733;28;20036;-66
2023/10/07 00:39:06;;;;;;;8.10;5.18;;;;;;;13.11;100.00;101986.34;5008385;28;20537;-65
2023/10/07 00:41:39;;;;;;;;;;;;;;;13.12;100.00;101972.50;5009223;28;20525;-65
2023/10/07 00:49:39;;;;;;;10.18;4.80;;;;;;;13.10;100.00;101971.53;5021122;28;20061;-66
2023/10/07 00:52:11;;;;;;;7.53;4.68;;;;;;;13.09;100.00;101983.69;5008330;28;20031;-66
2023/10/07 00:57:24;;;;;;;8.75;5.30;;;;;;;13.11;100.00;101985.44;5021378;28;20021;-66
2023/10/07 00:59:51;;;;;;;9.15;5.53;;;;;;;13.12;100.00;101987.22;5027422;28;20025;-65
2023/10/07 01:02:29;;;;;;;8.25;5.13;;;;;;;13.11;100.00;101981.13;5025598;28;20025;-66
2023/10/07 01:05:00;;;;;;;10.57;5.75;;;;;;;13.06;100.00;101964.47;5018023;28;20401;-66
2023/10/07 01:07:25;;;;;;;13.35;6.15;;;;;;;13.08;100.00;101949.78;5023686;28;20018;-65
2023/10/07 01:12:39;;;;;;;9.85;5.93;;;;;;;13.06;100.00;101951.44;5007876;28;20033;-66
2023/10/07 01:15:29;;;;;;;11.18;5.85;;;;;;;13.06;100.00;101960.13;5009057;28;20092;-66
2023/10/07 01:18:05;;;;;;;9.60;6.28;;;;;;;13.07;100.00;101954.09;5008022;28;20041;-66
2023/10/07 01:23:22;;;;;;;8.45;6.15;;;;;;;13.09;100.00;101967.19;5008429;28;20037;-67
2023/10/07 01:25:50;;;;;;;14.00;7.20;;;;;;;13.11;100.00;101969.84;5007724;28;20080;-65
2023/10/07 01:28:20;;;;;;;10.25;6.72;;;;;;;13.10;100.00;101984.56;5022800;28;20280;-65
2023/10/07 01:31:07;;;;;;;10.32;6.40;;;;;;;13.11;100.00;101988.94;5027299;28;20025;-65
2023/10/07 01:33:41;;;;;;;10.68;6.75;;;;;;;13.10;100.00;101981.94;5025934;28;20026;-65
2023/10/07 01:36:19;;;;;;;14.82;6.82;;;;;;;13.07;100.00;101969.72;5026529;28;20488;-66
2023/10/07 01:38:48;;;;;;;13.45;6.82;;;;;;;13.06;100.00;101977.47;5027022;28;20030;-65
2023/10/07 01:41:18;;;;;;;8.75;6.35;;;;;;;13.04;100.00;101979.97;5013481;28;20041;-66
2023/10/07 01:43:49;;;;;;;12.73;7.35;;;;;;;13.04;100.00;101979.13;5027062;28;20055;-66
2023/10/07 01:46:19;;;;;;;11.70;6.70;;;;;;;13.02;100.00;101966.06;5026882;28;20032;-65
2023/10/07 01:48:55;;;;;;;10.40;7.23;;;;;;;13.03;100.00;101967.81;5026799;28;20029;-65
2023/10/07 01:51:20;;;;;;;9.77;7.05;;;;;;;13.01;100.00;101963.38;5013816;28;20122;-65
2023/10/07 01:53:46;;;;;;;13.27;7.35;;;;;;;13.01;100.00;101959.06;5027010;28;20038;-66
2023/10/07 01:56:14;;;;;;;13.27;7.35;;;;;;;12.99;100.00;101949.44;5026374;28;20026;-66
2023/10/07 01:58:40;;;;;;;13.40;7.82;;;;;;;12.99;100.00;101945.09;5027084;28;20029;-66
2023/10/07 02:01:05;;;;;;;16.20;8.75;;;;;;;12.96;100.00;101951.09;5026091;28;20018;-66
2023/10/07 02:03:32;;;;;;;11.95;8.55;;;;;;;12.97;100.00;101952.84;5027350;28;20037;-65
2023/10/07 02:05:58;;;;;;;15.85;9.20;;;;;;;12.97;100.00;101952.84;5025903;28;20041;-65
2023/10/07 02:08:25;;;;;;;13.27;8.85;;;;;;;12.99;100.00;101946.84;5026182;28;20068;-66
2023/10/07 02:10:52;;;;;;;14.48;9.60;;;;;;;12.97;100.00;101946.75;5025914;28;20033;-65
2023/10/07 02:13:20;;;;;;;13.65;9.23;;;;;;;12.99;100.00;101950.28;5027023;28;20025;-66
2023/10/07 02:15:51;;;;;;;14.75;9.13;;;;;;;13.02;100.00;101966.06;5020235;28;20037;-66
2023/10/07 02:18:17;;;;;;;12.07;9.43;;;;;;;13.03;100.00;101952.19;5020011;28;20431;-66
2023/10/07 02:20:53;;;;;;;16.98;9.32;;;;;;;13.03;100.00;101935.69;5026643;28;20044;-66
2023/10/07 02:23:54;;;;;;;11.90;10.02;;;;;;;13.03;100.00;101931.38;5025149;28;20069;-66
2023/10/07 02:26:22;;;;;;;17.75;9.80;;;;;;;13.07;100.00;101948.00;5025144;28;20040;-65
2023/10/07 02:28:51;;;;;;;16.75;11.05;;;;;;;13.08;100.00;101961.06;5019840;28;20037;-65
2023/10/07 02:31:20;;;;;;;18.25;11.10;;;;;;;13.09;100.00;101947.25;5007386;28;20030;-66
2023/10/07 02:33:51;;;;;;;13.75;11.45;;;;;;;13.11;100.00;101942.09;5007098;28;20437;-66
2023/10/07 02:36:36;;;;;;;17.95;11.73;;;;;;;13.14;100.00;101941.31;5008375;28;20030;-66
2023/10/07 02:39:05;;;;;;;16.17;10.73;;;;;;;13.16;100.00;101950.97;5016998;28;20022;-66
2023/10/07 02:41:33;;;;;;;15.70;11.32;;;;;;;13.19;100.00;101958.00;5011567;28;20393;-66
2023/10/07 02:44:05;;;;;;;19.25;13.02;;;;;;;13.20;100.00;101946.78;5018288;28;20038;-65
2023/10/07 02:46:33;;;;;;;17.25;11.18;;;;;;;13.20;100.00;101952.84;5026989;28;20446;-66
2023/10/07 02:49:06;;;;;;;19.17;11.98;;;;;;;13.24;100.00;101953.00;5030573;28;20025;-65
2023/10/07 02:51:39;;;;;;;19.77;13.50;;;;;;;13.25;100.00;101952.16;5004819;28;20021;-66
2023/10/07 02:54:17;;;;;;;22.48;13.60;;;;;;;13.26;100.00;101938.34;5015979;28;20038;-67
2023/10/07 02:57:01;;;;;;;20.80;14.20;;;;;;;13.27;100.00;101956.59;5011203;28;20105;-66
2023/10/07 02:59:30;;;;;;;21.20;13.98;;;;;;;13.29;100.00;101959.25;5010418;28;20028;-66
2023/10/07 03:04:43;;;;;;;18.95;14.65;;;;;;;13.33;100.00;101955.94;5011383;28;20100;-66
2023/10/07 03:07:14;;;;;;;21.55;14.55;;;;;;;13.34;100.00;101957.72;5011374;28;20022;-65
2023/10/07 03:09:51;;;;;;;22.00;14.30;;;;;;;13.35;100.00;101959.47;5010661;28;20084;-66
2023/10/07 03:12:27;;;;;;;19.58;15.27;;;;;;;13.38;100.00;101959.63;5010137;28;20030;-66
2023/10/07 03:14:55;;;;;;;20.38;15.52;;;;;;;13.39;100.00;101956.19;5010115;28;20395;-66
2023/10/07 03:17:20;;;;;;;20.70;15.68;;;;;;;13.41;100.00;101954.53;5010114;28;20442;-66
2023/10/07 03:19:53;;;;;;;23.75;15.60;;;;;;;13.42;100.00;101945.88;5010136;28;20041;-65
2023/10/07 03:22:26;;;;;;;20.13;14.80;;;;;;;13.45;100.00;101956.41;5010344;28;20032;-66
2023/10/07 03:24:59;;;;;;;19.23;15.63;;;;;;;13.46;100.00;101949.47;5010616;28;20116;-66
2023/10/07 03:27:26;;;;;;;24.10;15.35;;;;;;;13.47;100.00;101951.28;5018656;28;20033;-65
2023/10/07 03:30:27;;;;;;;22.65;15.40;;;;;;;13.50;100.00;101947.88;5015830;28;20038;-66
2023/10/07 03:32:54;;;;;;;18.77;15.05;;;;;;;13.51;100.00;101953.16;5016381;28;20095;-66
2023/10/07 03:35:35;;;;;;;19.95;16.92;;;;;;;13.53;100.00;101954.13;5009847;28;20072;-65
2023/10/07 03:38:10;;;;;;;25.42;18.05;;;;;;;13.54;100.00;101949.81;5009035;28;20318;-66
2023/10/07 03:40:38;;;;;;;20.42;16.30;;;;;;;13.55;100.00;101947.25;5009606;28;20673;-66
2023/10/07 03:43:04;;;;;;;22.40;17.70;;;;;;;13.56;100.00;101953.38;5026028;28;20014;-66
2023/10/07 03:45:29;;;;;;;22.83;17.83;;;;;;;13.56;100.00;101943.81;5028905;28;20021;-66
2023/10/07 03:47:57;;;;;;;25.45;17.45;;;;;;;13.59;100.00;101942.16;5028411;28;20026;-66
2023/10/07 03:50:34;;;;;;;26.20;18.65;;;;;;;13.61;100.00;101941.41;5028828;28;20029;-65
2023/10/07 03:53:00;;;;;;;28.30;17.55;;;;;;;13.63;100.00;101931.03;5014864;28;20049;-66
2023/10/07 03:55:27;;;;;;;19.83;17.52;;;;;;;13.64;100.00;101920.66;5028854;28;20029;-66
2023/10/07 03:57:53;;;;;;;25.98;18.10;;;;;;;13.66;100.00;101918.13;5009956;28;20026;-66
2023/10/07 04:00:19;;;;;;;22.52;19.70;;;;;;;13.66;100.00;101910.31;5022079;28;20033;-65
2023/10/07 04:02:45;;;;;;;25.67;19.20;;;;;;;13.68;100.00;101912.16;5028002;28;20095;-66
2023/10/07 04:05:11;;;;;;;25.95;19.42;;;;;;;13.69;100.00;101908.69;5027474;28;20528;-65
2023/10/07 04:07:37;;;;;;;27.13;19.13;;;;;;;13.72;100.00;101907.03;5027739;28;20230;-66
2023/10/07 04:12:48;;;;;;;25.50;19.08;;;;;;;13.74;100.00;101900.19;5006657;28;20056;-66
2023/10/07 04:15:17;;;;;;;27.27;20.15;;;;;;;13.74;100.00;101901.06;5027338;28;20037;-66
2023/10/07 04:17:44;;;;;;;31.67;20.48;;;;;;;13.75;100.00;101904.53;5028323;28;20339;-66
2023/10/07 04:20:22;;;;;;;23.00;19.58;;;;;;;13.76;100.00;101899.38;5025563;28;20045;-66
2023/10/07 04:22:57;;;;;;;27.65;20.52;;;;;;;13.77;100.00;101905.50;5019464;28;20037;-66
2023/10/07 04:25:23;;;;;;;26.65;19.77;;;;;;;13.77;100.00;101927.22;5025881;28;20040;-66
2023/10/07 04:27:53;;;;;;;26.23;17.75;;;;;;;13.79;100.00;101922.97;5028357;28;20177;-65
2023/10/07 04:30:23;;;;;;;23.08;18.52;;;;;;;13.80;100.00;101911.69;5022691;28;20495;-66
2023/10/07 04:32:53;;;;;;;27.50;18.67;;;;;;;13.82;100.00;101909.13;5007738;28;20029;-66
2023/10/07 04:35:20;;;;;;;26.48;17.98;;;;;;;13.83;100.00;101915.25;5008996;28;20367;-66
2023/10/07 04:37:54;;;;;;;26.15;17.98;;;;;;;13.85;100.00;101914.44;5008391;28;20025;-65
2023/10/07 04:45:49;;;;;;;21.42;16.63;;;;;;;13.88;100.00;101934.53;4999988;28;20030;-66
2023/10/07 04:51:03;;;;;;;25.40;17.35;;;;;;;13.90;100.00;101927.66;5008516;28;20473;-66
2023/10/07 04:53:39;;;;;;;;;;;;;;;13.90;100.00;101936.38;5017619;28;20061;-66
2023/10/07 04:56:10;;;;;;;18.77;15.32;;;;;;;13.92;100.00;101937.28;5010747;28;20017;-67
2023/10/07 04:58:39;;;;;;;23.85;16.13;;;;;;;13.93;100.00;101939.06;5008651;28;20520;-66
2023/10/07 05:01:22;;;;;;;22.48;15.23;;;;;;;13.92;100.00;101932.06;5013152;28;20064;-65
2023/10/07 05:03:51;;;;;;;20.50;15.38;;;;;;;13.91;100.00;101932.91;5014059;28;20045;-66
2023/10/07 05:06:16;;;;;;;16.45;14.45;;;;;;;13.92;100.00;101932.06;5008016;28;20037;-66
2023/10/07 05:08:45;;;;;;;19.48;14.40;;;;;;;13.93;100.00;101939.06;5021331;28;20021;-65
2023/10/07 05:11:16;;;;;;;18.10;14.15;;;;;;;13.93;100.00;101935.56;5019610;28;20036;-65
2023/10/07 05:13:44;;;;;;;20.25;13.63;;;;;;;13.93;100.00;101933.88;5008396;28;20478;-66
2023/10/07 05:16:10;;;;;;;15.75;12.80;;;;;;;13.95;100.00;101935.63;5017483;28;20021;-66
2023/10/07 05:18:35;;;;;;;22.02;14.15;;;;;;;13.95;100.00;101938.22;5026288;28;20499;-66
2023/10/07 05:21:00;;;;;;;17.17;13.60;;;;;;;13.92;100.00;101932.06;5027155;28;20508;-66
2023/10/07 05:23:26;;;;;;;16.55;12.50;;;;;;;13.92;100.00;101937.28;5013935;28;20110;-66
2023/10/07 05:25:51;;;;;;;15.68;12.27;;;;;;;13.91;100.00;101943.34;5027254;28;20039;-66
2023/10/07 05:28:21;;;;;;;16.85;12.35;;;;;;;13.92;100.00;101937.28;5024131;28;20429;-65
2023/10/07 05:30:51;;;;;;;17.85;11.95;;;;;;;13.93;100.00;101935.56;5027626;28;20112;-66
2023/10/07 05:33:17;;;;;;;17.73;12.43;;;;;;;13.93;100.00;101936.47;5025558;28;20022;-66
2023/10/07 05:35:43;;;;;;;18.35;12.32;;;;;;;13.95;100.00;101935.63;5026885;28;20021;-66
2023/10/07 05:38:12;;;;;;;15.52;11.93;;;;;;;13.95;100.00;101922.59;5026572;28;20099;-66
2023/10/07 05:40:37;;;;;;;21.58;12.15;;;;;;;13.95;100.00;101920.00;5027691;28;20481;-66
2023/10/07 05:43:05;;;;;;;16.25;11.30;;;;;;;13.97;100.00;101913.13;5026794;28;20045;-66
2023/10/07 05:45:30;;;;;;;18.00;11.05;;;;;;;13.97;100.00;101919.22;5026863;28;20488;-66
2023/10/07 05:47:55;;;;;;;18.38;11.40;;;;;;;13.99;100.00;101914.06;5007009;28;20030;-66
2023/10/07 05:50:22;;;;;;;15.93;11.07;;;;;;;14.00;100.00;101923.66;5017220;28;20135;-66
2023/10/07 05:52:47;;;;;;;15.73;10.40;;;;;;;14.01;100.00;101928.03;5025246;28;20021;-66
2023/10/07 05:55:13;;;;;;;17.48;10.65;;;;;;;14.02;100.00;101924.59;5027425;28;20156;-67
2023/10/07 05:57:39;;;;;;;14.60;10.50;;;;;;;14.03;100.00;101939.41;5026016;28;20045;-66
2023/10/07 06:00:09;;;;;;;16.17;10.48;;;;;;;14.04;100.00;101930.75;5027274;28;20032;-66
2023/10/07 06:02:35;;;;;;;16.42;10.73;;;;;;;14.04;100.00;101915.09;5022640;28;20374;-67
2023/10/07 06:05:00;;;;;;;19.80;11.43;;;;;;;14.06;100.00;101931.69;5006606;28;20036;-66
2023/10/07 06:07:25;;;;;;;15.70;10.52;;;;;;;14.07;100.00;101930.84;5006589;28;20014;-66
2023/10/07 06:09:52;;;;;;;19.00;11.25;;;;;;;14.07;100.00;101941.28;5007402;28;20022;-66
2023/10/07 06:12:18;;;;;;;14.57;10.60;;;;;;;14.08;100.00;101940.47;5020710;28;20025;-66
2023/10/07 06:14:46;;;;;;;16.17;10.35;;;;;;;14.10;100.00;101930.97;5018608;28;20676;-66
2023/10/07 06:17:12;;;;;;;15.52;9.85;;;;;;;14.10;100.00;101943.13;5026015;28;20021;-65
2023/10/07 06:19:38;;;;;;;16.83;11.30;;;;;;;14.11;100.00;101943.16;5025617;28;20492;-66
2023/10/07 06:22:12;;;;;;;13.30;10.07;;;;;;;14.12;100.00;101951.88;5028833;28;20022;-66
2023/10/07 06:24:39;;;;;;;16.13;10.60;;;;;;;14.12;100.00;101939.72;5030687;28;20040;-66
2023/10/07 06:27:08;;;;;;;15.75;9.80;;;;;;;14.15;100.00;101945.06;5028523;28;20028;-67
2023/10/07 06:29:33;;;;;;;14.57;10.07;;;;;;;14.16;100.00;101940.69;5030291;28;20056;-66
2023/10/07 06:34:42;;;;;;;13.80;8.77;;;;;;;14.19;100.00;101955.56;5029249;28;20287;-66
2023/10/07 06:37:07;;;;;;;16.40;9.68;;;;;;;14.21;100.00;101969.56;5029317;28;20026;-66
2023/10/07 06:39:33;;;;;;;19.73;9.40;;;;;;;14.22;100.00;101979.13;5029487;28;20384;-66
2023/10/07 06:41:58;;;;;;;16.20;9.45;;;;;;;14.22;100.00;101976.53;5030079;28;20508;-66
2023/10/07 06:44:24;;;;;;;13.13;9.20;;;;;;;14.23;100.00;101971.38;5027881;28;20087;-66
2023/10/07 06:46:56;;;;;;;14.10;9.80;;;;;;;14.24;100.00;101969.66;5022225;28;20076;-66
2023/10/07 06:49:22;;;;;;;15.13;8.90;;;;;;;14.24;100.00;101969.66;5023853;28;20141;-66
2023/10/07 06:51:56;;;;;;;14.63;9.40;;;;;;;14.25;100.00;101971.41;5029203;28;20546;-66
2023/10/07 06:54:23;;;;;;;13.93;8.50;;;;;;;14.25;100.00;101961.88;5027722;28;20068;-66
2023/10/07 06:56:51;;;;;;;12.90;8.73;;;;;;;14.26;100.00;101970.59;5029636;28;20079;-66
2023/10/07 06:59:16;;;;;;;18.15;8.43;;;;;;;14.29;100.00;101975.91;5027576;28;20022;-66
2023/10/07 07:04:11;;;;;;;16.60;9.00;;;;;;;14.32;100.00;101983.84;5028065;28;20060;-67
2023/10/07 07:06:43;;;;;;;13.77;8.32;;;;;;;14.34;100.00;101981.28;5029064;28;20052;-66
2023/10/07 07:11:58;;;;;;;11.52;7.70;;;;;;;14.35;100.00;101978.75;5027216;28;20037;-67
2023/10/07 07:14:28;;;;;;;15.95;9.05;;;;;;;14.38;100.00;101967.53;5021763;28;20113;-66
2023/10/07 07:16:57;;;;;;;15.43;8.40;;;;;;;14.38;100.00;101973.63;5011155;28;20462;-66
2023/10/07 07:19:25;;;;;;;10.50;8.00;;;;;;;14.43;100.00;101985.94;5027364;28;20108;-66
2023/10/07 07:21:51;;;;;;;13.20;8.57;;;;;;;14.46;100.00;101984.34;5026442;28;20135;-66
2023/10/07 07:24:23;;;;;;;12.38;7.65;;;;;;;14.51;100.00;101984.47;5027981;28;20025;-66
2023/10/07 07:26:52;;;;;;;15.20;7.70;;;;;;;14.57;100.00;101979.44;5026392;28;20026;-66
2023/10/07 07:29:23;;;;;;;13.20;8.13;;;;;;;14.62;100.00;101988.34;5029895;28;20027;-66
2023/10/07 07:31:49;;;;;;;13.45;7.55;;;;;;;14.68;100.00;101987.63;5015724;28;20465;-66
2023/10/07 07:34:26;;;;;;;11.00;7.55;;;;;;;14.72;100.00;102004.28;5018113;28;20453;-66
2023/10/07 07:37:04;;;;;;;16.42;8.13;;;;;;;14.74;100.00;102000.00;5016287;28;20390;-66
2023/10/07 07:39:32;;;;;;;12.27;7.22;;;;;;;14.76;100.00;101996.63;5015304;28;20030;-66
2023/10/07 07:42:15;;;;;;;9.35;6.78;;;;;;;14.78;100.00;101999.28;5017336;28;20061;-66
2023/10/07 07:44:56;;;;;;;14.32;7.65;;;;;;;14.80;100.00;101992.41;5029049;28;20412;-66
2023/10/07 07:47:21;;;;;;;10.63;7.38;;;;;;;14.92;100.00;102001.47;5029324;28;20025;-66
2023/10/07 07:49:48;;;;;;;13.25;7.85;;;;;;;14.99;100.00;102003.44;5027770;28;20037;-66
2023/10/07 07:52:15;;;;;;;10.27;6.63;;;;;;;15.07;100.00;101998.47;5028922;28;20048;-67
2023/10/07 07:54:41;;;;;;;15.68;7.80;;;;;;;15.17;100.00;101997.03;5027532;28;20485;-66
2023/10/07 07:57:08;;;;;;;11.90;6.95;;;;;;;15.23;100.00;102002.47;5028406;28;20095;-66
2023/10/07 07:59:33;;;;;;;10.30;7.38;;;;;;;15.28;100.00;102006.09;5027933;28;20029;-66
2023/10/07 08:02:11;;;;;;;11.73;7.50;;;;;;;15.33;100.00;102009.75;5028458;28;20063;-66
2023/10/07 08:04:37;;;;;;;11.07;6.90;;;;;;;15.34;100.00;102015.84;5006715;28;20032;-66
2023/10/07 08:07:17;;;;;;;10.65;7.53;;;;;;;15.41;100.00;102022.16;5026436;28;20390;-66
2023/10/07 08:09:44;;;;;;;8.88;6.57;;;;;;;15.50;100.00;102025.03;5027866;28;20223;-66
2023/10/07 08:12:10;;;;;;;14.70;7.43;;;;;;;15.66;100.00;102018.56;5027043;28;20065;-66
2023/10/07 08:14:38;;;;;;;9.00;6.45;;;;;;;15.87;100.00;102026.97;5028212;28;20385;-67
2023/10/07 08:17:08;;;;;;;13.73;7.40;;;;;;;16.19;100.00;102019.19;4990975;28;20077;-66
2023/10/07 08:19:33;;;;;;;12.20;7.07;;;;;;;16.60;100.00;102022.88;5001188;28;20040;-67
2023/10/07 08:22:02;;;;;;;12.57;6.22;;;;;;;16.98;100.00;102032.53;5007663;28;20038;-67
2023/10/07 08:24:31;;;;;;;10.65;5.88;;;;;;;17.22;100.00;102027.00;5020682;28;20040;-67
2023/10/07 08:27:03;;;;;;;9.77;5.63;;;;;;;17.32;100.00;102033.34;5020685;28;20025;-67
2023/10/07 08:29:32;;;;;;;11.00;5.95;;;;;;;17.44;100.00;102017.03;5007172;28;20033;-67
2023/10/07 08:32:34;;;;;;;13.40;5.78;;;;;;;17.48;100.00;102013.63;5007491;28;20077;-67
2023/10/07 08:34:59;;;;;;;14.75;6.63;;;;;;;17.57;100.00;102012.03;5006198;28;20034;-67
2023/10/07 08:37:32;;;;;;;10.93;6.05;;;;;;;17.47;100.00;102016.19;5007042;28;20029;-67
2023/10/07 08:39:58;;;;;;;9.85;6.22;;;;;;;17.52;100.00;102009.34;5006672;28;20037;-67
2023/10/07 08:42:26;;;;;;;7.95;5.53;;;;;;;17.75;100.00;102015.03;5006343;28;20054;-67
2023/10/07 08:44:54;;;;;;;12.15;6.55;;;;;;;17.88;100.00;102016.19;5006036;28;20026;-67
2023/10/07 08:47:21;;;;;;;12.20;5.65;;;;;;;18.12;100.00;102016.63;5006088;28;20427;-67
2023/10/07 08:49:48;;;;;;;12.30;5.82;;;;;;;18.14;100.00;102022.84;5006375;28;20061;-68
2023/10/07 08:52:16;;;;;;;11.15;5.80;;;;;;;18.44;100.00;102016.38;5006829;28;20027;-68
2023/10/07 08:54:44;;;;;;;12.57;6.60;;;;;;;18.45;100.00;102012.91;5007337;28;20030;-67
2023/10/07 08:57:22;;;;;;;10.80;5.40;;;;;;;18.58;100.00;102010.50;5006288;28;20018;-67
2023/10/07 08:59:52;;;;;;;9.43;5.50;;;;;;;18.63;100.00;102013.19;5006808;28;20034;-67
2023/10/07 09:02:34;;;;;;;12.02;5.80;;;;;;;18.54;100.00;102004.31;5005341;28;20036;-67
2023/10/07 09:05:06;;;;;;;11.93;5.60;;;;;;;18.40;100.00;102009.31;5014539;28;20029;-67
2023/10/07 09:07:32;;;;;;;10.43;5.07;;;;;;;18.55;100.00;102006.06;5020411;28;20064;-67
2023/10/07 09:10:15;;;;;;;7.85;5.05;;;;;;;18.66;100.00;102013.22;5015090;28;20057;-67
2023/10/07 09:12:49;;;;;;;10.27;5.63;;;;;;;18.53;100.00;102010.41;5012625;28;20017;-67
2023/10/07 09:15:26;;;;;;;12.18;5.97;;;;;;;18.58;100.00;102005.25;5012736;28;20029;-67
2023/10/07 09:17:57;;;;;;;10.43;5.25;;;;;;;18.64;100.00;102010.59;5022719;28;20423;-67
2023/10/07 09:20:29;;;;;;;11.38;5.60;;;;;;;18.67;100.00;102002.75;5005785;28;20032;-67
2023/10/07 09:23:07;;;;;;;9.40;4.97;;;;;;;18.67;100.00;101994.03;5006360;28;20037;-67
2023/10/07 09:25:33;;;;;;;9.13;5.05;;;;;;;18.68;100.00;101995.78;5011123;28;20446;-67
2023/10/07 09:28:01;;;;;;;8.18;4.68;;;;;;;18.64;100.00;101994.84;5016557;28;20082;-67
2023/10/07 09:34:02;;;;;;;7.63;4.50;;;;;;;18.55;100.00;101994.69;5001906;28;20131;-68
2023/10/07 09:41:38;;;;;;;9.43;3.97;;;;;;;18.39;100.00;101994.44;5018013;28;20421;-67
2023/10/07 09:44:12;;;;;;;9.20;4.20;;;;;;;18.36;100.00;101987.41;5012301;28;20045;-67
2023/10/07 09:46:40;;;;;;;8.70;4.32;;;;;;;18.31;100.00;101996.03;5006435;28;20375;-67
2023/10/07 09:49:06;;;;;;;9.90;4.57;;;;;;;18.31;100.00;101991.66;5024938;28;20021;-66
2023/10/07 09:51:41;;;;;;;7.13;4.45;;;;;;;18.33;100.00;101995.19;5019725;28;20450;-64
2023/10/07 09:54:36;;;;;;;6.78;3.78;;;;;;;18.39;100.00;101994.44;5004780;28;20025;-65
2023/10/07 09:57:19;;;;;;;8.60;3.85;;;;;;;18.39;100.00;101989.19;4992224;28;20048;-65
2023/10/07 09:59:56;;;;;;;9.15;4.05;;;;;;;18.36;100.00;101989.13;5019204;28;20030;-66
2023/10/07 10:02:43;;;;;;;8.07;3.83;;;;;;;18.38;100.00;101991.78;5020155;28;20129;-65
2023/10/07 10:05:25;;;;;;;7.90;3.83;;;;;;;18.36;100.00;102000.53;5015627;28;20069;-65
2023/10/07 10:08:19;;;;;;;9.20;4.78;;;;;;;18.38;100.00;101986.53;5009736;28;20117;-65
2023/10/07 10:10:49;;;;;;;7.95;4.22;;;;;;;18.39;100.00;101989.19;5023121;28;20033;-65
2023/10/07 10:13:28;;;;;;;9.30;4.20;;;;;;;18.37;100.00;101996.13;5031050;28;20017;-64
2023/10/07 10:15:59;;;;;;;8.15;3.85;;;;;;;18.39;100.00;102002.28;5030615;28;20389;-66
2023/10/07 10:18:36;;;;;;;;;;;;;;;18.44;100.00;102011.13;5012705;28;20018;-65
2023/10/07 10:21:05;;;;;;;7.85;4.20;;;;;;;18.45;100.00;102025.13;5011941;28;19913;-65
2023/10/07 10:23:34;;;;;;;10.27;4.00;;;;;;;18.43;100.00;102027.75;5011406;28;20530;-66
2023/10/07 10:26:44;;;;;;;8.70;4.00;;;;;;;18.49;100.00;102026.97;5011650;28;20021;-65
2023/10/07 10:29:00;;;;;;;7.03;3.83;;;;;;;18.59;100.00;102018.41;5012043;28;20119;-65
2023/10/07 10:31:32;;;;;;;7.32;3.88;;;;;;;18.66;100.00;102022.00;5012077;28;20028;-65
2023/10/07 10:34:05;;;;;;;7.05;3.63;;;;;;;18.76;100.00;102020.44;5010830;28;20025;-65
2023/10/07 10:36:35;;;;;;;5.47;3.20;;;;;;;18.88;100.00;102025.00;5022287;28;20053;-65
2023/10/07 10:39:04;;;;;;;10.90;4.15;;;;;;;18.95;100.00;102020.72;5013422;28;20500;-65
2023/10/07 10:41:32;;;;;;;8.70;4.00;;;;;;;19.03;100.00;102028.72;5011708;28;20041;-66
2023/10/07 10:44:06;;;;;;;8.07;3.60;;;;;;;19.04;100.00;102022.59;5023820;28;20113;-65
2023/10/07 10:46:48;;;;;;;9.10;4.18;;;;;;;19.06;100.00;102034.00;5023513;28;20283;-64
2023/10/07 10:49:18;;;;;;;5.55;3.33;;;;;;;19.09;100.00;102036.69;5006580;28;20025;-66
2023/10/07 10:51:46;;;;;;;9.57;4.10;;;;;;;19.15;100.00;102022.78;5029416;28;20478;-65
2023/10/07 10:54:19;;;;;;;8.15;4.20;;;;;;;19.24;100.00;102027.31;5019474;28;20032;-66
2023/10/07 10:56:58;;;;;;;7.63;3.90;;;;;;;19.37;100.00;102029.25;5029705;28;20582;-64
2023/10/07 10:59:43;;;;;;;7.45;4.10;;;;;;;19.53;100.00;102032.09;5030923;28;20021;-65
2023/10/07 11:02:11;;;;;;;6.90;3.58;;;;;;;19.64;100.00;102006.84;5030066;28;20064;-65
2023/10/07 11:04:36;;;;;;;6.38;3.40;;;;;;;19.76;100.00;102015.72;5029803;28;20413;-65
2023/10/07 11:07:04;;;;;;;7.65;3.75;;;;;;;19.86;100.00;102022.84;5029189;28;20079;-65
2023/10/07 11:09:37;;;;;;;6.78;3.47;;;;;;;19.97;100.00;102015.09;5016380;28;20036;-65
2023/10/07 11:12:09;;;;;;;6.90;3.28;;;;;;;20.08;100.00;102017.88;5011325;28;20022;-65
2023/10/07 11:14:41;;;;;;;7.05;3.47;;;;;;;20.18;100.00;102018.88;5011121;28;20132;-64
2023/10/07 11:17:09;;;;;;;7.45;3.35;;;;;;;20.26;100.00;102013.66;5010395;28;20047;-65
2023/10/07 11:19:50;;;;;;;6.25;3.55;;;;;;;20.37;100.00;102014.66;5014779;28;20104;-65
2023/10/07 11:22:22;;;;;;;8.93;3.95;;;;;;;20.46;100.00;102018.22;5029690;28;20397;-65
2023/10/07 11:24:50;;;;;;;6.65;3.30;;;;;;;20.50;100.00;102002.50;5005074;28;20025;-65
2023/10/07 11:27:16;;;;;;;7.30;3.55;;;;;;;20.57;100.00;101994.66;5015798;28;20041;-64
2023/10/07 11:29:43;;;;;;;4.72;3.45;;;;;;;20.68;100.00;101997.38;5029658;28;20052;-65
2023/10/07 11:32:09;;;;;;;9.27;3.83;;;;;;;20.73;100.00;101995.66;5028897;28;20026;-65
2023/10/07 11:34:39;;;;;;;7.22;3.88;;;;;;;20.81;100.00;102004.50;5029282;28;20040;-65
2023/10/07 11:37:14;;;;;;;5.57;3.77;;;;;;;20.88;99.69;102002.78;5027676;28;20022;-64
2023/10/07 11:39:45;;;;;;;6.53;3.42;;;;;;;20.97;100.00;102004.63;5030215;28;20470;-65
2023/10/07 11:42:12;;;;;;;5.18;3.40;;;;;;;20.99;99.99;102003.75;5029011;28;20167;-66
2023/10/07 11:44:38;;;;;;;8.35;4.40;;;;;;;21.07;100.00;101995.03;5029691;28;20030;-65
2023/10/07 11:47:06;;;;;;;5.68;3.83;;;;;;;21.09;99.04;101993.28;5027395;28;20030;-65
2023/10/07 11:49:32;;;;;;;7.20;3.72;;;;;;;21.13;97.40;101994.19;5029516;28;20080;-65
2023/10/07 11:51:57;;;;;;;9.02;4.22;;;;;;;21.19;98.06;102000.38;5029615;28;20056;-65
2023/10/07 11:54:24;;;;;;;6.95;3.75;;;;;;;21.26;97.77;102006.59;5030009;28;20028;-65
2023/10/07 11:56:50;;;;;;;6.35;3.53;;;;;;;21.34;98.91;102015.41;5029676;28;20021;-66
2023/10/07 11:59:15;;;;;;;8.32;3.92;;;;;;;21.28;96.07;102003.97;5028591;28;20417;-65
2023/10/07 12:01:40;;;;;;;8.48;3.95;;;;;;;21.24;98.02;102003.91;5025654;28;20466;-65
2023/10/07 12:04:05;;;;;;;7.45;4.30;;;;;;;21.22;98.04;102010.97;5010514;28;20116;-65
2023/10/07 12:06:31;;;;;;;5.10;3.15;;;;;;;21.30;99.99;102002.22;5009802;28;20033;-65
2023/10/07 12:08:56;;;;;;;6.50;3.00;;;;;;;21.35;98.17;102000.47;5009806;28;20037;-65
2023/10/07 12:11:22;;;;;;;7.45;3.90;;;;;;;21.35;96.85;102006.59;5009879;28;20024;-66
2023/10/07 12:13:48;;;;;;;7.78;3.95;;;;;;;21.42;97.10;102004.03;5009602;28;20025;-66